Detalii statie PETRESTI PETRESTI [0000197D]

Toti senzorii

Date Temperatura solului [C]Precipitatii [mm]Voltaj baterie [mV]Leaf Wetness [Min]HC Air temperature [C]HC Relative humidity [%]Punctul de roua [C]
medieminmaxsumaultimatimpmedieminmaxmediemediemin
2019-04-19 19:00:00 0 6728 16.6 15.13 17.69 22.54 -5.1 -5.5
2019-04-19 20:00:00 0 6728 13.76 12.94 15.1 27.7 -4.6 -5.1
2019-04-19 21:00:00 0 6708 12.18 11.8 12.57 30.64 -4.7 -5.1
2019-04-19 22:00:00 0 6698 11.81 10.83 12.25 30.89 -4.9 -5.2
2019-04-19 23:00:00 0 6698 8.36 6.41 10.59 41.47 -4.1 -4.6
2019-04-20 00:00:00 0 6640 6.39 5.82 7.02 49.62 -3.4 -3.6
2019-04-20 01:00:00 0 6640 6.72 5.81 8.4 46.6 -3.9 -4.8
2019-04-20 02:00:00 0 6688 6.09 5.45 6.59 45.35 -4.9 -5.1
2019-04-20 03:00:00 0 6678 5.66 5.36 6.13 46.12 -5 -5.3
2019-04-20 04:00:00 0 6640 4.56 3.39 6.08 51.38 -4.6 -5.2
2019-04-20 05:00:00 0 6668 2.38 0.58 3.65 59.94 -4.6 -5.4
2019-04-20 06:00:00 0 6620 1.59 0.27 3.33 64.63 -4.4 -5.5
2019-04-20 07:00:00 0 6620 4.59 3.36 6.18 54.35 -3.8 -4.5
2019-04-20 08:00:00 0 6650 7.93 6.59 9.84 48.81 -2.2 -3.2
2019-04-20 09:00:00 0 6708 11.88 9.97 14 41.34 -0.9 -1.4
2019-04-20 10:00:00 0 6728 14.83 13.95 16.19 36.21 -0.1 -0.5
2019-04-20 11:00:00 0 6756 15.87 15.19 16.78 28.61 -2.5 -3.8
2019-04-20 12:00:00 0 6884 16.7 16.19 18.25 24.37 -3.9 -5.2
2019-04-20 13:00:00 0 6884 18.56 18.04 19.5 20.13 -4.9 -6.2
2019-04-20 14:00:00 0 6844 18.96 18.58 19.61 18.99 -5.5 -6.1
2019-04-20 15:00:00 0 6826 19.35 19.07 20.15 18.47 -5.4 -7.3
2019-04-20 16:00:00 0 7098 19.38 19.19 19.67 17.18 -6.5 -7.6
2019-04-20 17:00:00 0 7088 19.67 19.2 20.35 17.59 -5.9 -6.6
2019-04-20 18:00:00 0 6786 19.84 18.81 20.56 19.06 -4.6 -6.6
2019-04-20 19:00:00 0 6728 17.53 15.37 19.21 26.42 -2.4 -4.2
2019-04-20 20:00:00 0 6678 14.25 12.79 15.13 30.72 -2.9 -3.3
2019-04-20 21:00:00 0 6708 12.11 11.18 12.78 34.42 -3.2 -3.7
2019-04-20 22:00:00 0 6688 12.21 11.7 12.55 32.69 -3.7 -4.1
2019-04-20 23:00:00 0 6698 12.01 11.06 12.69 32.04 -4.2 -4.8
2019-04-21 00:00:00 0 6650 11.78 9.77 13.23 31.94 -4.6 -5.8
2019-04-21 01:00:00 0 6660 9.53 9.2 9.85 41.19 -3 -3.3
2019-04-21 02:00:00 0 6610 9.91 9.7 10.14 41.3 -2.7 -2.9
2019-04-21 03:00:00 0 6650 9.87 9.61 10.07 42.02 -2.5 -2.7
2019-04-21 04:00:00 0 6650 9.52 9.34 9.87 42.25 -2.8 -3.1
2019-04-21 05:00:00 0 6582 9.04 8.2 9.41 43.33 -2.8 -3.1
2019-04-21 06:00:00 0 6650 5.67 4.97 7.78 58.82 -1.8 -3.1
2019-04-21 07:00:00 0 6650 6.09 5.03 7.68 60.78 -0.9 -1.4
2019-04-21 08:00:00 0 6668 10.07 7.78 12.57 49.32 -0.2 -1.2
2019-04-21 09:00:00 0 6678 13.14 12.51 14.31 38.46 -0.7 -1.3
2019-04-21 10:00:00 0 6640 15.17 14.51 15.9 34.64 -0.4 -1.3
2019-04-21 11:00:00 0 6738 15.96 15.25 17.24 34.62 0.1 -0.4
2019-04-21 12:00:00 0 6844 17.12 16.24 18.6 33.04 0.4 -0.2
2019-04-21 13:00:00 0 6904 19.53 17.81 21.38 29 0.8 0
2019-04-21 14:00:00 0 6864 20.28 19.08 23.2 26.5 0.1 -1.3
2019-04-21 15:00:00 0 6756 20.99 19.77 21.95 20.76 -2.6 -5
2019-04-21 16:00:00 0 7070 20.64 20.09 21.69 21.66 -2.2 -3.3
2019-04-21 17:00:00 0 6718 20.01 19.44 20.99 23.72 -1.6 -2.5
2019-04-21 18:00:00 0 7010 19.82 18.72 20.39 24.55 -1.3 -2.9